sensor_id;sensor_type;location;lat;lon;timestamp;temperature;humidity
55634;DHT22;41504;53.162;6.788;2022-08-21T00:00:37;17.30;76.10
55634;DHT22;41504;53.162;6.788;2022-08-21T00:03:06;17.30;76.20
55634;DHT22;41504;53.162;6.788;2022-08-21T00:05:36;17.30;76.30
55634;DHT22;41504;53.162;6.788;2022-08-21T00:08:03;17.30;76.10
55634;DHT22;41504;53.162;6.788;2022-08-21T00:10:31;17.30;76.30
55634;DHT22;41504;53.162;6.788;2022-08-21T00:12:57;17.30;76.10
55634;DHT22;41504;53.162;6.788;2022-08-21T00:15:26;17.20;76.20
55634;DHT22;41504;53.162;6.788;2022-08-21T00:17:53;17.20;76.30
55634;DHT22;41504;53.162;6.788;2022-08-21T00:20:19;17.20;76.20
55634;DHT22;41504;53.162;6.788;2022-08-21T00:22:46;17.20;76.10
55634;DHT22;41504;53.162;6.788;2022-08-21T00:25:13;17.10;76.20
55634;DHT22;41504;53.162;6.788;2022-08-21T00:27:40;17.10;76.20
55634;DHT22;41504;53.162;6.788;2022-08-21T00:30:08;17.00;76.30
55634;DHT22;41504;53.162;6.788;2022-08-21T00:32:36;16.90;76.40
55634;DHT22;41504;53.162;6.788;2022-08-21T00:35:04;16.90;76.60
55634;DHT22;41504;53.162;6.788;2022-08-21T00:37:30;16.90;76.60
55634;DHT22;41504;53.162;6.788;2022-08-21T00:39:56;16.90;76.70
55634;DHT22;41504;53.162;6.788;2022-08-21T00:42:22;16.90;76.70
55634;DHT22;41504;53.162;6.788;2022-08-21T00:44:49;16.80;76.70
55634;DHT22;41504;53.162;6.788;2022-08-21T00:47:17;16.90;76.80
55634;DHT22;41504;53.162;6.788;2022-08-21T00:49:43;16.90;76.70
55634;DHT22;41504;53.162;6.788;2022-08-21T00:52:14;16.90;76.80
55634;DHT22;41504;53.162;6.788;2022-08-21T00:54:41;16.80;76.80
55634;DHT22;41504;53.162;6.788;2022-08-21T00:57:13;16.90;76.90
55634;DHT22;41504;53.162;6.788;2022-08-21T00:59:40;16.90;76.90
55634;DHT22;41504;53.162;6.788;2022-08-21T01:02:08;16.90;76.80
55634;DHT22;41504;53.162;6.788;2022-08-21T01:04:34;16.80;76.80
55634;DHT22;41504;53.162;6.788;2022-08-21T01:07:00;16.80;76.80
55634;DHT22;41504;53.162;6.788;2022-08-21T01:09:26;16.80;76.80
55634;DHT22;41504;53.162;6.788;2022-08-21T01:11:52;16.70;76.90
55634;DHT22;41504;53.162;6.788;2022-08-21T01:14:18;16.70;77.00
55634;DHT22;41504;53.162;6.788;2022-08-21T01:16:48;16.60;77.00
55634;DHT22;41504;53.162;6.788;2022-08-21T01:19:16;16.60;77.20
55634;DHT22;41504;53.162;6.788;2022-08-21T01:21:42;16.50;77.20
55634;DHT22;41504;53.162;6.788;2022-08-21T01:24:08;16.50;77.20
55634;DHT22;41504;53.162;6.788;2022-08-21T01:26:35;16.50;77.30
55634;DHT22;41504;53.162;6.788;2022-08-21T01:31:38;16.40;77.30
55634;DHT22;41504;53.162;6.788;2022-08-21T01:34:04;16.40;77.50
55634;DHT22;41504;53.162;6.788;2022-08-21T01:36:31;16.40;77.30
55634;DHT22;41504;53.162;6.788;2022-08-21T01:38:57;16.40;77.30
55634;DHT22;41504;53.162;6.788;2022-08-21T01:41:23;16.40;77.70
55634;DHT22;41504;53.162;6.788;2022-08-21T01:43:48;16.40;77.20
55634;DHT22;41504;53.162;6.788;2022-08-21T01:46:14;16.40;77.30
55634;DHT22;41504;53.162;6.788;2022-08-21T01:48:41;16.40;77.10
55634;DHT22;41504;53.162;6.788;2022-08-21T01:51:07;16.30;77.10
55634;DHT22;41504;53.162;6.788;2022-08-21T01:53:34;16.30;77.30
55634;DHT22;41504;53.162;6.788;2022-08-21T01:56:07;16.20;77.40
55634;DHT22;41504;53.162;6.788;2022-08-21T01:58:33;16.20;77.50
55634;DHT22;41504;53.162;6.788;2022-08-21T02:01:00;16.10;77.70
55634;DHT22;41504;53.162;6.788;2022-08-21T02:03:28;16.10;77.80
55634;DHT22;41504;53.162;6.788;2022-08-21T02:05:54;16.20;77.80
55634;DHT22;41504;53.162;6.788;2022-08-21T02:08:19;16.20;77.90
55634;DHT22;41504;53.162;6.788;2022-08-21T02:10:49;16.20;78.00
55634;DHT22;41504;53.162;6.788;2022-08-21T02:13:16;16.20;77.90
55634;DHT22;41504;53.162;6.788;2022-08-21T02:15:44;16.10;77.90
55634;DHT22;41504;53.162;6.788;2022-08-21T02:18:10;16.20;78.00
55634;DHT22;41504;53.162;6.788;2022-08-21T02:20:39;16.20;78.00
55634;DHT22;41504;53.162;6.788;2022-08-21T02:23:06;16.10;78.00
55634;DHT22;41504;53.162;6.788;2022-08-21T02:25:33;16.10;78.00
55634;DHT22;41504;53.162;6.788;2022-08-21T02:28:02;16.10;78.20
55634;DHT22;41504;53.162;6.788;2022-08-21T02:30:32;16.10;78.30
55634;DHT22;41504;53.162;6.788;2022-08-21T02:32:59;16.10;78.30
55634;DHT22;41504;53.162;6.788;2022-08-21T02:35:25;16.10;78.30
55634;DHT22;41504;53.162;6.788;2022-08-21T02:37:59;16.10;78.30
55634;DHT22;41504;53.162;6.788;2022-08-21T02:40:29;16.10;78.30
55634;DHT22;41504;53.162;6.788;2022-08-21T02:42:57;16.00;78.40
55634;DHT22;41504;53.162;6.788;2022-08-21T02:45:23;16.00;78.40
55634;DHT22;41504;53.162;6.788;2022-08-21T02:47:51;15.90;78.50
55634;DHT22;41504;53.162;6.788;2022-08-21T02:50:23;15.90;78.50
55634;DHT22;41504;53.162;6.788;2022-08-21T02:52:49;16.00;78.70
55634;DHT22;41504;53.162;6.788;2022-08-21T02:55:18;15.90;78.60
55634;DHT22;41504;53.162;6.788;2022-08-21T02:57:44;15.90;78.70
55634;DHT22;41504;53.162;6.788;2022-08-21T03:00:10;15.80;78.80
55634;DHT22;41504;53.162;6.788;2022-08-21T03:02:37;15.80;78.80
55634;DHT22;41504;53.162;6.788;2022-08-21T03:05:05;15.80;78.80
55634;DHT22;41504;53.162;6.788;2022-08-21T03:07:31;15.80;78.90
55634;DHT22;41504;53.162;6.788;2022-08-21T03:09:56;15.70;78.90
55634;DHT22;41504;53.162;6.788;2022-08-21T03:12:23;15.70;78.90
55634;DHT22;41504;53.162;6.788;2022-08-21T03:14:48;15.70;79.00
55634;DHT22;41504;53.162;6.788;2022-08-21T03:17:14;15.70;79.00
55634;DHT22;41504;53.162;6.788;2022-08-21T03:19:40;15.60;79.00
55634;DHT22;41504;53.162;6.788;2022-08-21T03:22:06;15.60;79.00
55634;DHT22;41504;53.162;6.788;2022-08-21T03:24:31;15.60;79.10
55634;DHT22;41504;53.162;6.788;2022-08-21T03:26:57;15.60;79.10
55634;DHT22;41504;53.162;6.788;2022-08-21T03:29:23;15.50;79.10
55634;DHT22;41504;53.162;6.788;2022-08-21T03:31:48;15.50;79.20
55634;DHT22;41504;53.162;6.788;2022-08-21T03:34:14;15.50;79.50
55634;DHT22;41504;53.162;6.788;2022-08-21T03:36:40;15.40;79.50
55634;DHT22;41504;53.162;6.788;2022-08-21T03:39:06;15.40;79.40
55634;DHT22;41504;53.162;6.788;2022-08-21T03:41:31;15.40;79.60
55634;DHT22;41504;53.162;6.788;2022-08-21T03:43:57;15.40;79.70
55634;DHT22;41504;53.162;6.788;2022-08-21T03:46:24;15.40;79.70
55634;DHT22;41504;53.162;6.788;2022-08-21T03:48:50;15.40;79.70
55634;DHT22;41504;53.162;6.788;2022-08-21T03:51:18;15.40;79.80
55634;DHT22;41504;53.162;6.788;2022-08-21T03:53:44;15.30;79.80
55634;DHT22;41504;53.162;6.788;2022-08-21T03:56:10;15.30;79.80
55634;DHT22;41504;53.162;6.788;2022-08-21T03:58:36;15.30;79.80
55634;DHT22;41504;53.162;6.788;2022-08-21T04:01:04;15.30;79.80
55634;DHT22;41504;53.162;6.788;2022-08-21T04:03:32;15.30;79.90
55634;DHT22;41504;53.162;6.788;2022-08-21T04:05:57;15.30;79.90
55634;DHT22;41504;53.162;6.788;2022-08-21T04:08:23;15.30;80.00
55634;DHT22;41504;53.162;6.788;2022-08-21T04:10:51;15.30;80.00
55634;DHT22;41504;53.162;6.788;2022-08-21T04:13:17;15.30;80.20
55634;DHT22;41504;53.162;6.788;2022-08-21T04:15:43;15.20;80.10
55634;DHT22;41504;53.162;6.788;2022-08-21T04:18:09;15.20;80.20
55634;DHT22;41504;53.162;6.788;2022-08-21T04:20:35;15.20;80.30
55634;DHT22;41504;53.162;6.788;2022-08-21T04:23:02;15.10;80.30
55634;DHT22;41504;53.162;6.788;2022-08-21T19:24:46;19.40;66.70
55634;DHT22;41504;53.162;6.788;2022-08-21T19:27:12;19.20;68.30
55634;DHT22;41504;53.162;6.788;2022-08-21T19:29:39;19.20;69.30
55634;DHT22;41504;53.162;6.788;2022-08-21T19:32:06;19.20;70.90
55634;DHT22;41504;53.162;6.788;2022-08-21T19:34:32;19.10;70.90
55634;DHT22;41504;53.162;6.788;2022-08-21T19:37:00;19.10;71.70
55634;DHT22;41504;53.162;6.788;2022-08-21T19:39:27;19.10;72.30
55634;DHT22;41504;53.162;6.788;2022-08-21T19:41:55;19.00;72.70
55634;DHT22;41504;53.162;6.788;2022-08-21T19:44:24;19.00;73.20
55634;DHT22;41504;53.162;6.788;2022-08-21T19:46:53;19.00;73.60
55634;DHT22;41504;53.162;6.788;2022-08-21T19:49:24;18.90;73.80
55634;DHT22;41504;53.162;6.788;2022-08-21T19:51:51;18.90;74.10
55634;DHT22;41504;53.162;6.788;2022-08-21T19:54:30;18.90;74.20
55634;DHT22;41504;53.162;6.788;2022-08-21T19:57:00;18.90;74.30
55634;DHT22;41504;53.162;6.788;2022-08-21T19:59:27;18.90;74.50
55634;DHT22;41504;53.162;6.788;2022-08-21T20:01:53;18.90;74.50
55634;DHT22;41504;53.162;6.788;2022-08-21T20:04:19;18.80;74.70
55634;DHT22;41504;53.162;6.788;2022-08-21T20:06:45;18.70;74.90
55634;DHT22;41504;53.162;6.788;2022-08-21T20:09:11;18.70;75.10
55634;DHT22;41504;53.162;6.788;2022-08-21T20:11:40;18.70;75.20
55634;DHT22;41504;53.162;6.788;2022-08-21T20:14:08;18.70;75.20
55634;DHT22;41504;53.162;6.788;2022-08-21T20:16:34;18.60;75.30
55634;DHT22;41504;53.162;6.788;2022-08-21T20:19:02;18.70;75.40
55634;DHT22;41504;53.162;6.788;2022-08-21T20:21:31;18.70;75.30
55634;DHT22;41504;53.162;6.788;2022-08-21T20:23:57;18.80;75.30
55634;DHT22;41504;53.162;6.788;2022-08-21T20:26:23;18.80;75.10
55634;DHT22;41504;53.162;6.788;2022-08-21T20:28:51;18.80;75.10
55634;DHT22;41504;53.162;6.788;2022-08-21T20:31:16;18.70;75.30
55634;DHT22;41504;53.162;6.788;2022-08-21T20:33:43;18.80;75.60
55634;DHT22;41504;53.162;6.788;2022-08-21T20:36:09;18.80;75.60
55634;DHT22;41504;53.162;6.788;2022-08-21T20:38:35;18.90;75.60
55634;DHT22;41504;53.162;6.788;2022-08-21T20:41:02;18.90;75.50
55634;DHT22;41504;53.162;6.788;2022-08-21T20:43:33;19.00;75.60
55634;DHT22;41504;53.162;6.788;2022-08-21T20:45:59;19.00;75.40
55634;DHT22;41504;53.162;6.788;2022-08-21T20:48:31;19.00;75.30
55634;DHT22;41504;53.162;6.788;2022-08-21T20:51:27;19.00;75.30
55634;DHT22;41504;53.162;6.788;2022-08-21T20:54:04;19.00;74.90
55634;DHT22;41504;53.162;6.788;2022-08-21T20:56:45;19.10;75.30
55634;DHT22;41504;53.162;6.788;2022-08-21T20:59:36;19.10;75.20
55634;DHT22;41504;53.162;6.788;2022-08-21T21:02:15;19.10;75.20
55634;DHT22;41504;53.162;6.788;2022-08-21T21:07:40;19.00;75.20
55634;DHT22;41504;53.162;6.788;2022-08-21T21:10:22;19.00;75.20
55634;DHT22;41504;53.162;6.788;2022-08-21T21:13:00;19.00;75.40
55634;DHT22;41504;53.162;6.788;2022-08-21T21:15:30;19.00;75.40
55634;DHT22;41504;53.162;6.788;2022-08-21T21:18:08;19.00;75.50
55634;DHT22;41504;53.162;6.788;2022-08-21T21:20:46;18.90;75.50
55634;DHT22;41504;53.162;6.788;2022-08-21T21:23:23;18.90;75.70
55634;DHT22;41504;53.162;6.788;2022-08-21T21:26:01;18.80;75.70
55634;DHT22;41504;53.162;6.788;2022-08-21T21:31:20;18.80;75.80
55634;DHT22;41504;53.162;6.788;2022-08-21T21:33:46;18.80;76.10
55634;DHT22;41504;53.162;6.788;2022-08-21T21:36:24;18.80;76.30
55634;DHT22;41504;53.162;6.788;2022-08-21T21:39:08;18.80;76.20
55634;DHT22;41504;53.162;6.788;2022-08-21T21:41:49;18.80;76.10
55634;DHT22;41504;53.162;6.788;2022-08-21T21:44:46;18.80;76.30
55634;DHT22;41504;53.162;6.788;2022-08-21T21:50:06;18.70;76.40
55634;DHT22;41504;53.162;6.788;2022-08-21T21:53:16;18.70;76.40
55634;DHT22;41504;53.162;6.788;2022-08-21T22:01:11;18.70;76.70
55634;DHT22;41504;53.162;6.788;2022-08-21T22:06:41;18.70;76.70
55634;DHT22;41504;53.162;6.788;2022-08-21T22:09:37;18.60;76.70
55634;DHT22;41504;53.162;6.788;2022-08-21T22:14:38;18.50;76.90
55634;DHT22;41504;53.162;6.788;2022-08-21T22:17:29;18.50;76.90
55634;DHT22;41504;53.162;6.788;2022-08-21T22:19:59;18.50;77.00
55634;DHT22;41504;53.162;6.788;2022-08-21T22:22:28;18.40;77.20
55634;DHT22;41504;53.162;6.788;2022-08-21T22:25:00;18.40;77.20
55634;DHT22;41504;53.162;6.788;2022-08-21T22:27:33;18.40;77.40
55634;DHT22;41504;53.162;6.788;2022-08-21T22:30:04;18.40;77.50
55634;DHT22;41504;53.162;6.788;2022-08-21T22:32:44;18.40;77.60
55634;DHT22;41504;53.162;6.788;2022-08-21T22:35:22;18.40;77.60
55634;DHT22;41504;53.162;6.788;2022-08-21T22:37:55;18.30;77.60
55634;DHT22;41504;53.162;6.788;2022-08-21T22:40:31;18.30;77.60
55634;DHT22;41504;53.162;6.788;2022-08-21T22:43:06;18.30;77.60
55634;DHT22;41504;53.162;6.788;2022-08-21T22:48:23;18.30;77.70
55634;DHT22;41504;53.162;6.788;2022-08-21T22:51:05;18.20;77.60
55634;DHT22;41504;53.162;6.788;2022-08-21T22:53:38;18.20;77.60
55634;DHT22;41504;53.162;6.788;2022-08-21T22:56:06;18.10;77.80
55634;DHT22;41504;53.162;6.788;2022-08-21T22:58:52;18.10;77.90
55634;DHT22;41504;53.162;6.788;2022-08-21T23:04:18;18.00;78.30
55634;DHT22;41504;53.162;6.788;2022-08-21T23:06:54;18.00;77.90
55634;DHT22;41504;53.162;6.788;2022-08-21T23:09:44;18.00;78.50
55634;DHT22;41504;53.162;6.788;2022-08-21T23:12:25;17.90;78.70
55634;DHT22;41504;53.162;6.788;2022-08-21T23:14:52;17.70;78.80
55634;DHT22;41504;53.162;6.788;2022-08-21T23:17:46;17.70;79.20
55634;DHT22;41504;53.162;6.788;2022-08-21T23:20:24;17.70;79.20
55634;DHT22;41504;53.162;6.788;2022-08-21T23:23:12;17.70;79.30
55634;DHT22;41504;53.162;6.788;2022-08-21T23:29:08;17.70;79.40
55634;DHT22;41504;53.162;6.788;2022-08-21T23:37:45;17.70;79.30
55634;DHT22;41504;53.162;6.788;2022-08-21T23:46:05;17.70;79.40
55634;DHT22;41504;53.162;6.788;2022-08-21T23:48:44;17.70;79.60
55634;DHT22;41504;53.162;6.788;2022-08-21T23:51:13;17.70;79.50
55634;DHT22;41504;53.162;6.788;2022-08-21T23:54:18;17.60;79.40
